createdAt,value
2023-04-23T00:00:39.865Z,21.86
2023-04-23T00:01:39.898Z,21.86
2023-04-23T00:02:40.001Z,21.86
2023-04-23T00:03:40.135Z,21.86
2023-04-23T00:04:40.301Z,21.86
2023-04-23T00:05:39.994Z,21.86
2023-04-23T00:06:40.028Z,21.85
2023-04-23T00:07:40.037Z,21.86
2023-04-23T00:08:40.044Z,21.86
2023-04-23T00:09:40.082Z,21.85
2023-04-23T00:10:40.201Z,21.86
2023-04-23T00:11:40.396Z,21.86
2023-04-23T00:12:40.150Z,21.86
2023-04-23T00:13:40.181Z,21.85
2023-04-23T00:14:40.346Z,21.85
2023-04-23T00:15:40.242Z,21.85
2023-04-23T00:16:40.359Z,21.85
2023-04-23T00:17:40.371Z,21.85
2023-04-23T00:18:40.336Z,21.85
2023-04-23T00:19:42.107Z,21.85
2023-04-23T00:20:40.396Z,21.84
2023-04-23T00:21:40.428Z,21.85
2023-04-23T00:22:40.466Z,21.84
2023-04-23T00:23:40.494Z,21.84
2023-04-23T00:24:40.741Z,21.84
2023-04-23T00:25:40.549Z,21.84
2023-04-23T00:26:40.600Z,21.84
2023-04-23T00:27:40.624Z,21.84
2023-04-23T00:28:40.637Z,21.83
2023-04-23T00:29:41.609Z,21.84
2023-04-23T00:30:40.704Z,21.84
2023-04-23T00:31:40.776Z,21.84
2023-04-23T00:32:40.769Z,21.83
2023-04-23T00:33:40.779Z,21.83
2023-04-23T00:34:41.067Z,21.83
2023-04-23T00:35:40.847Z,21.84
2023-04-23T00:36:40.889Z,21.83
2023-04-23T00:37:40.920Z,21.83
2023-04-23T00:38:40.958Z,21.83
2023-04-23T00:39:40.997Z,21.83
2023-04-23T00:40:41.075Z,21.83
2023-04-23T00:41:41.039Z,21.83
2023-04-23T00:42:41.708Z,21.82
2023-04-23T00:43:41.110Z,21.82
2023-04-23T00:44:41.418Z,21.82
2023-04-23T00:45:41.173Z,21.82
2023-04-23T00:46:41.186Z,21.83
2023-04-23T00:47:41.274Z,21.82
2023-04-23T00:48:41.260Z,21.81
2023-04-23T00:49:41.291Z,21.82
2023-04-23T00:50:41.324Z,21.82
2023-04-23T00:51:41.370Z,21.82
2023-04-23T00:52:41.402Z,21.82
2023-04-23T00:53:41.438Z,21.82
2023-04-23T00:54:41.806Z,21.81
2023-04-23T00:55:41.497Z,21.82
2023-04-23T00:56:43.181Z,21.82
2023-04-23T00:57:41.565Z,21.82
2023-04-23T00:58:41.596Z,21.81
2023-04-23T00:59:41.645Z,21.81
2023-04-23T01:00:41.678Z,21.81
2023-04-23T01:01:41.771Z,21.81
2023-04-23T01:02:41.917Z,21.81
2023-04-23T01:03:41.887Z,21.81
2023-04-23T01:04:43.694Z,21.81
2023-04-23T01:05:41.859Z,21.81
2023-04-23T01:06:41.898Z,21.81
2023-04-23T01:07:42.054Z,21.81
2023-04-23T01:08:41.964Z,21.80
2023-04-23T01:09:42.008Z,21.80
2023-04-23T01:10:42.072Z,21.80
2023-04-23T01:11:42.084Z,21.80
2023-04-23T01:12:42.110Z,21.80
2023-04-23T01:13:42.168Z,21.80
2023-04-23T01:14:42.484Z,21.81
2023-04-23T01:15:42.230Z,21.80
2023-04-23T01:16:42.318Z,21.79
2023-04-23T01:17:42.308Z,21.79
2023-04-23T01:18:42.382Z,21.79
2023-04-23T01:19:42.495Z,21.80
2023-04-23T01:20:42.416Z,21.80
2023-04-23T01:21:42.464Z,21.80
2023-04-23T01:22:42.458Z,21.79
2023-04-23T01:23:42.487Z,21.80
2023-04-23T01:24:42.839Z,21.80
2023-04-23T01:25:42.528Z,21.80
2023-04-23T01:26:42.569Z,21.80
2023-04-23T01:27:42.606Z,21.79
2023-04-23T01:28:42.643Z,21.79
2023-04-23T01:29:42.673Z,21.79
2023-04-23T01:30:42.741Z,21.79
2023-04-23T01:31:42.752Z,21.79
2023-04-23T01:32:42.815Z,21.79
2023-04-23T01:33:42.827Z,21.79
2023-04-23T01:34:42.980Z,21.78
2023-04-23T01:35:43.207Z,21.79
2023-04-23T01:36:42.939Z,21.79
2023-04-23T01:37:42.977Z,21.79
2023-04-23T01:38:43.046Z,21.79
2023-04-23T01:39:43.065Z,21.79
2023-04-23T01:40:43.085Z,21.79
2023-04-23T01:41:43.126Z,21.79
2023-04-23T01:42:43.158Z,21.79
2023-04-23T01:43:43.189Z,21.79
2023-04-23T01:44:43.384Z,21.78
2023-04-23T01:45:44.142Z,21.78
2023-04-23T01:46:43.333Z,21.77
2023-04-23T01:47:43.364Z,21.78
2023-04-23T01:48:43.379Z,21.78
2023-04-23T01:49:43.416Z,21.78
2023-04-23T01:50:43.455Z,21.78
2023-04-23T01:51:43.778Z,21.78
2023-04-23T01:52:43.522Z,21.77
2023-04-23T01:53:43.563Z,21.77
2023-04-23T01:54:43.734Z,21.77
2023-04-23T01:55:43.632Z,21.77
2023-04-23T01:56:43.684Z,21.78
2023-04-23T01:57:43.719Z,21.77
2023-04-23T01:58:43.760Z,21.77
2023-04-23T01:59:43.797Z,21.77
2023-04-23T02:00:43.849Z,21.77
2023-04-23T02:01:43.985Z,21.77
2023-04-23T02:02:44.041Z,21.77
2023-04-23T02:03:44.059Z,21.76
2023-04-23T02:04:44.220Z,21.77
2023-04-23T02:05:44.019Z,21.76
2023-04-23T02:06:44.054Z,21.77
2023-04-23T02:07:44.096Z,21.77
2023-04-23T02:08:44.131Z,21.77
2023-04-23T02:09:44.173Z,21.77
2023-04-23T02:10:44.191Z,21.77
2023-04-23T02:11:44.232Z,21.77
2023-04-23T02:12:44.261Z,21.77
2023-04-23T02:13:44.301Z,21.77
2023-04-23T02:14:44.347Z,21.77
2023-04-23T02:15:44.457Z,21.76
2023-04-23T02:16:44.408Z,21.77
2023-04-23T02:17:44.449Z,21.76
2023-04-23T02:18:44.468Z,21.77
2023-04-23T02:19:44.522Z,21.77
2023-04-23T02:20:44.566Z,21.76
2023-04-23T02:21:44.604Z,21.77
2023-04-23T02:22:44.641Z,21.77
2023-04-23T02:23:44.675Z,21.77
2023-04-23T02:24:44.694Z,21.77
2023-04-23T02:25:44.718Z,21.77
2023-04-23T02:26:44.775Z,21.76
2023-04-23T02:27:44.807Z,21.77
2023-04-23T02:28:44.845Z,21.77
2023-04-23T02:29:44.877Z,21.77
2023-04-23T02:30:44.909Z,21.76
2023-04-23T02:31:44.970Z,21.77
2023-04-23T02:32:45.695Z,21.77
2023-04-23T02:33:45.024Z,21.76
2023-04-23T02:34:45.057Z,21.77
2023-04-23T02:35:45.076Z,21.76
2023-04-23T02:36:45.113Z,21.76
2023-04-23T02:37:45.153Z,21.76
2023-04-23T02:38:45.188Z,21.77
2023-04-23T02:39:45.225Z,21.77
2023-04-23T02:40:45.261Z,21.77
2023-04-23T02:41:45.298Z,21.77
2023-04-23T02:42:45.330Z,21.77
2023-04-23T02:43:45.376Z,21.77
2023-04-23T02:44:45.409Z,21.77
2023-04-23T02:45:45.439Z,21.76
2023-04-23T02:46:45.558Z,21.76
2023-04-23T02:47:45.529Z,21.76
2023-04-23T02:48:45.532Z,21.77
2023-04-23T02:49:45.580Z,21.76
2023-04-23T02:50:45.615Z,21.76
2023-04-23T02:51:45.653Z,21.76
2023-04-23T02:52:46.242Z,21.77
2023-04-23T02:53:45.734Z,21.77
2023-04-23T02:54:45.754Z,21.76
2023-04-23T02:55:45.797Z,21.76
2023-04-23T02:56:45.850Z,21.77
2023-04-23T02:57:45.877Z,21.76
2023-04-23T02:58:45.923Z,21.76
2023-04-23T02:59:45.955Z,21.76
2023-04-23T03:00:46.019Z,21.76
2023-04-23T03:01:46.002Z,21.76
2023-04-23T03:02:46.170Z,21.76
2023-04-23T03:03:46.217Z,21.76
2023-04-23T03:04:46.139Z,21.76
2023-04-23T03:05:46.180Z,21.76
2023-04-23T03:06:46.209Z,21.76
2023-04-23T03:07:46.248Z,21.76
2023-04-23T03:08:46.299Z,21.76
2023-04-23T03:09:46.325Z,21.76
2023-04-23T03:10:46.372Z,21.76
2023-04-23T03:11:46.408Z,21.76
2023-04-23T03:12:46.448Z,21.76
2023-04-23T03:13:48.230Z,21.76
2023-04-23T03:14:46.564Z,21.76
2023-04-23T03:15:46.553Z,21.76
2023-04-23T03:16:46.638Z,21.76
2023-04-23T03:17:46.720Z,21.76
2023-04-23T03:18:46.652Z,21.76
2023-04-23T03:19:46.699Z,21.75
2023-04-23T03:20:46.739Z,21.76
2023-04-23T03:21:46.777Z,21.76
2023-04-23T03:22:46.815Z,21.75
2023-04-23T03:23:46.853Z,21.76
2023-04-23T03:24:46.880Z,21.76
2023-04-23T03:25:46.924Z,21.76
2023-04-23T03:26:46.963Z,21.76
2023-04-23T03:27:46.999Z,21.76
2023-04-23T03:28:47.025Z,21.75
2023-04-23T03:29:47.058Z,21.76
2023-04-23T03:30:47.127Z,21.76
2023-04-23T03:31:47.116Z,21.75
2023-04-23T03:32:47.176Z,21.76
2023-04-23T03:33:47.196Z,21.75
2023-04-23T03:34:47.228Z,21.75
2023-04-23T03:35:47.275Z,21.76
2023-04-23T03:36:47.312Z,21.75
2023-04-23T03:37:47.364Z,21.75
2023-04-23T03:38:47.398Z,21.75
2023-04-23T03:39:47.432Z,21.75
2023-04-23T03:40:47.467Z,21.76
2023-04-23T03:41:47.508Z,21.76
2023-04-23T03:42:47.550Z,21.75
2023-04-23T03:43:47.610Z,21.76
2023-04-23T03:44:47.634Z,21.75
2023-04-23T03:45:47.691Z,21.76
2023-04-23T03:46:47.707Z,21.75
2023-04-23T03:47:47.817Z,21.76
2023-04-23T03:48:47.800Z,21.76
2023-04-23T03:49:47.814Z,21.75
2023-04-23T03:50:47.858Z,21.76
2023-04-23T03:51:47.907Z,21.76
2023-04-23T03:52:48.025Z,21.76
2023-04-23T03:53:47.998Z,21.76
2023-04-23T03:54:48.017Z,21.76
2023-04-23T03:55:48.130Z,21.76
2023-04-23T03:56:48.101Z,21.76
2023-04-23T03:57:48.136Z,21.76
2023-04-23T03:58:48.173Z,21.76
2023-04-23T03:59:48.199Z,21.76
2023-04-23T04:00:48.242Z,21.76
2023-04-23T04:01:48.282Z,21.76
2023-04-23T04:02:48.405Z,21.76
2023-04-23T04:03:48.521Z,21.76
2023-04-23T04:04:48.709Z,21.76
2023-04-23T04:05:48.441Z,21.76
2023-04-23T04:06:48.537Z,21.76
2023-04-23T04:07:48.551Z,21.76
2023-04-23T04:08:48.551Z,21.76
2023-04-23T04:09:48.588Z,21.76
2023-04-23T04:10:48.638Z,21.76
2023-04-23T04:11:48.667Z,21.76
2023-04-23T04:12:48.709Z,21.76
2023-04-23T04:13:48.735Z,21.77
2023-04-23T04:14:48.771Z,21.76
2023-04-23T04:15:48.812Z,21.76
2023-04-23T04:16:48.845Z,21.76
2023-04-23T04:17:48.911Z,21.76
2023-04-23T04:18:48.920Z,21.76
2023-04-23T04:19:48.944Z,21.76
2023-04-23T04:20:49.017Z,21.76
2023-04-23T04:21:50.717Z,21.77
2023-04-23T04:22:49.054Z,21.76
2023-04-23T04:23:49.080Z,21.77
2023-04-23T04:24:49.131Z,21.76
2023-04-23T04:25:49.143Z,21.76
2023-04-23T04:26:49.176Z,21.77
2023-04-23T04:27:49.218Z,21.77
2023-04-23T04:28:49.253Z,21.77
2023-04-23T04:29:49.291Z,21.77
2023-04-23T04:30:49.321Z,21.77
2023-04-23T04:31:49.374Z,21.78
2023-04-23T04:32:50.325Z,21.78
2023-04-23T04:33:49.421Z,21.77
2023-04-23T04:34:49.438Z,21.77
2023-04-23T04:35:49.481Z,21.77
2023-04-23T04:36:49.506Z,21.77
2023-04-23T04:37:49.555Z,21.77
2023-04-23T04:38:49.560Z,21.77
2023-04-23T04:39:49.594Z,21.77
2023-04-23T04:40:49.618Z,21.78
2023-04-23T04:41:49.644Z,21.78
2023-04-23T04:42:49.773Z,21.78
2023-04-23T04:43:49.700Z,21.79
2023-04-23T04:44:49.729Z,21.78
2023-04-23T04:45:49.751Z,21.78
2023-04-23T04:46:49.892Z,21.78
2023-04-23T04:47:49.833Z,21.77
2023-04-23T04:48:49.900Z,21.79
2023-04-23T04:49:49.870Z,21.79
2023-04-23T04:50:49.896Z,21.78
2023-04-23T04:51:50.052Z,21.79
2023-04-23T04:52:49.973Z,21.79
2023-04-23T04:53:50.157Z,21.79
2023-04-23T04:54:50.037Z,21.79
2023-04-23T04:55:50.070Z,21.79
2023-04-23T04:56:50.111Z,21.79
2023-04-23T04:57:50.161Z,21.79
2023-04-23T04:58:50.188Z,21.79
2023-04-23T04:59:50.209Z,21.79
2023-04-23T05:00:51.256Z,21.79
2023-04-23T05:01:50.299Z,21.79
2023-04-23T05:02:50.380Z,21.80
2023-04-23T05:03:50.491Z,21.80
2023-04-23T05:04:50.417Z,21.80
2023-04-23T05:05:50.431Z,21.80
2023-04-23T05:06:50.472Z,21.80
2023-04-23T05:07:50.608Z,21.80
2023-04-23T05:08:51.472Z,21.80
2023-04-23T05:09:50.445Z,21.80
2023-04-23T05:10:50.425Z,21.80
2023-04-23T05:11:50.402Z,21.80
2023-04-23T05:12:50.385Z,21.80
2023-04-23T05:13:50.391Z,21.80
2023-04-23T05:14:52.185Z,21.80
2023-04-23T05:15:51.257Z,21.81
2023-04-23T05:16:50.366Z,21.81
2023-04-23T05:17:50.405Z,21.81
2023-04-23T05:18:50.727Z,21.81
2023-04-23T05:19:50.376Z,21.81
2023-04-23T05:20:50.417Z,21.81
2023-04-23T05:21:50.463Z,21.80
2023-04-23T05:22:50.481Z,21.81
2023-04-23T05:23:50.512Z,21.81
2023-04-23T05:24:51.293Z,21.82
2023-04-23T05:25:51.428Z,21.81
2023-04-23T05:26:50.570Z,21.81
2023-04-23T05:27:50.604Z,21.81
2023-04-23T05:28:50.640Z,21.81
2023-04-23T05:29:50.661Z,21.81
2023-04-23T05:30:50.710Z,21.81
2023-04-23T05:31:50.736Z,21.81
2023-04-23T05:32:50.765Z,21.82
2023-04-23T05:33:51.084Z,21.82
2023-04-23T05:34:50.792Z,21.81
2023-04-23T05:35:50.832Z,21.81
2023-04-23T05:36:50.859Z,21.81
2023-04-23T05:37:50.893Z,21.81
2023-04-23T05:38:50.927Z,21.82
2023-04-23T05:39:50.955Z,21.82
2023-04-23T05:40:51.047Z,21.82
2023-04-23T05:41:51.006Z,21.81
2023-04-23T05:42:51.036Z,21.82
2023-04-23T05:43:51.066Z,21.82
2023-04-23T05:44:51.126Z,21.81
2023-04-23T05:45:51.129Z,21.82
2023-04-23T05:46:51.142Z,21.82
2023-04-23T05:47:51.227Z,21.82
2023-04-23T05:48:51.220Z,21.82
2023-04-23T05:49:51.256Z,21.82
2023-04-23T05:50:52.235Z,21.82
2023-04-23T05:51:51.319Z,21.82
2023-04-23T05:52:51.732Z,21.83
2023-04-23T05:53:51.389Z,21.83
2023-04-23T05:54:51.403Z,21.83
2023-04-23T05:55:51.452Z,21.82
2023-04-23T05:56:53.457Z,21.83
2023-04-23T05:57:51.448Z,21.83
2023-04-23T05:58:51.430Z,21.83
2023-04-23T05:59:51.413Z,21.84
2023-04-23T06:00:51.405Z,21.84
2023-04-23T06:01:51.374Z,21.85
2023-04-23T06:02:51.497Z,21.84
2023-04-23T06:03:51.669Z,21.85
2023-04-23T06:04:51.453Z,21.86
2023-04-23T06:05:51.395Z,21.87
2023-04-23T06:06:51.257Z,21.87
2023-04-23T06:07:51.249Z,21.88
2023-04-23T06:08:51.230Z,21.90
2023-04-23T06:09:51.285Z,21.91
2023-04-23T06:10:51.178Z,21.92
2023-04-23T06:11:51.162Z,21.92
2023-04-23T06:12:51.240Z,21.92
2023-04-23T06:13:51.116Z,21.91
2023-04-23T06:14:51.078Z,21.91
2023-04-23T06:15:51.084Z,21.91
2023-04-23T06:16:51.016Z,21.90
2023-04-23T06:17:51.020Z,21.91
2023-04-23T06:18:50.957Z,21.91
2023-04-23T06:19:50.929Z,21.92
2023-04-23T06:20:50.898Z,21.92
2023-04-23T06:21:50.876Z,21.94
2023-04-23T06:22:50.862Z,21.94
2023-04-23T06:23:50.813Z,21.95
2023-04-23T06:24:50.777Z,21.96
2023-04-23T06:25:50.753Z,21.96
2023-04-23T06:26:50.728Z,21.98
2023-04-23T06:27:50.702Z,22.00
2023-04-23T06:28:50.670Z,22.00
2023-04-23T06:29:50.641Z,22.00
2023-04-23T06:30:50.607Z,22.00
2023-04-23T06:31:50.612Z,22.02
2023-04-23T06:32:50.587Z,22.03
2023-04-23T06:33:50.538Z,22.06
2023-04-23T06:35:00.253Z,22.08
2023-04-23T06:35:51.475Z,22.11
2023-04-23T06:36:50.457Z,22.14
2023-04-23T06:37:50.453Z,22.16
2023-04-23T06:38:50.397Z,22.19
2023-04-23T06:39:50.360Z,22.21
2023-04-23T06:40:50.327Z,22.23
2023-04-23T06:41:50.309Z,22.26
2023-04-23T06:42:50.301Z,22.29
2023-04-23T06:43:50.251Z,22.32
2023-04-23T06:44:50.220Z,22.35
2023-04-23T06:45:50.187Z,22.36
2023-04-23T06:46:50.301Z,22.38
2023-04-23T06:47:50.162Z,22.38
2023-04-23T06:48:50.106Z,22.36
2023-04-23T06:49:50.130Z,22.35
2023-04-23T06:50:50.051Z,22.36
2023-04-23T06:51:50.032Z,22.39
2023-04-23T06:52:50.003Z,22.39
2023-04-23T06:53:49.977Z,22.40
2023-04-23T06:54:49.948Z,22.43
2023-04-23T06:55:49.914Z,22.44
2023-04-23T06:56:49.885Z,22.44
2023-04-23T06:57:49.858Z,22.45
2023-04-23T06:58:49.847Z,22.45
2023-04-23T06:59:49.807Z,22.45
2023-04-23T07:00:49.824Z,22.45
2023-04-23T07:01:49.787Z,22.44
2023-04-23T07:02:49.834Z,22.43
2023-04-23T07:03:49.777Z,22.43
2023-04-23T07:04:49.759Z,22.43
2023-04-23T07:05:49.751Z,22.43
2023-04-23T07:06:49.718Z,22.43
2023-04-23T07:07:49.708Z,22.44
2023-04-23T07:08:49.685Z,22.43
2023-04-23T07:09:49.663Z,22.44
2023-04-23T07:10:50.340Z,22.43
2023-04-23T07:11:49.632Z,22.43
2023-04-23T07:12:49.612Z,22.44
2023-04-23T07:13:49.600Z,22.43
2023-04-23T07:14:49.576Z,22.44
2023-04-23T07:15:49.556Z,22.45
2023-04-23T07:16:49.563Z,22.44
2023-04-23T07:17:49.588Z,22.45
2023-04-23T07:18:49.506Z,22.45
2023-04-23T07:19:49.528Z,22.45
2023-04-23T07:20:49.483Z,22.46
2023-04-23T07:21:49.472Z,22.47
2023-04-23T07:22:49.446Z,22.48
2023-04-23T07:23:49.439Z,22.49
2023-04-23T07:24:49.421Z,22.51
2023-04-23T07:25:49.404Z,22.52
2023-04-23T07:26:49.373Z,22.54
2023-04-23T07:27:49.347Z,22.54
2023-04-23T07:28:51.343Z,22.54
2023-04-23T07:29:49.661Z,22.54
2023-04-23T07:30:49.255Z,22.55
2023-04-23T07:31:49.246Z,22.55
2023-04-23T07:32:49.255Z,22.56
2023-04-23T07:33:49.177Z,22.57
2023-04-23T07:34:49.209Z,22.56
2023-04-23T07:35:49.119Z,22.57
2023-04-23T07:36:49.085Z,22.59
2023-04-23T07:37:49.040Z,22.62
2023-04-23T07:38:49.011Z,22.63
2023-04-23T07:39:49.186Z,22.65
2023-04-23T07:40:48.941Z,22.66
2023-04-23T07:41:48.909Z,22.67
2023-04-23T07:42:48.891Z,22.70
2023-04-23T07:43:48.856Z,22.72
2023-04-23T07:44:48.828Z,22.73
2023-04-23T07:45:48.798Z,22.75
2023-04-23T07:46:48.748Z,22.77
2023-04-23T07:47:48.739Z,22.77
2023-04-23T07:48:48.694Z,22.77
2023-04-23T07:49:48.655Z,22.78
2023-04-23T07:50:48.648Z,22.80
2023-04-23T07:51:48.591Z,22.81
2023-04-23T07:52:48.567Z,22.83
2023-04-23T07:53:48.520Z,22.85
2023-04-23T07:54:48.489Z,22.86
2023-04-23T07:55:48.456Z,22.88
2023-04-23T07:56:48.432Z,22.91
2023-04-23T07:57:48.391Z,22.92
2023-04-23T07:58:48.361Z,22.94
2023-04-23T07:59:48.331Z,22.96
2023-04-23T08:00:48.285Z,22.97
2023-04-23T08:01:48.254Z,23.00
2023-04-23T08:02:48.337Z,23.02
2023-04-23T08:03:48.333Z,23.04
2023-04-23T08:04:48.202Z,23.06
2023-04-23T08:05:48.247Z,23.08
2023-04-23T08:06:48.097Z,23.10
2023-04-23T08:07:48.052Z,23.12
2023-04-23T08:08:48.021Z,23.14
2023-04-23T08:09:48.179Z,23.16
2023-04-23T08:10:47.960Z,23.16
2023-04-23T08:11:47.939Z,23.19
2023-04-23T08:12:48.899Z,23.19
2023-04-23T08:13:47.849Z,23.22
2023-04-23T08:14:47.825Z,23.24
2023-04-23T08:15:47.923Z,23.26
2023-04-23T08:16:47.745Z,23.27
2023-04-23T08:17:47.768Z,23.29
2023-04-23T08:18:58.162Z,23.31
2023-04-23T08:19:48.638Z,23.32
2023-04-23T08:20:47.605Z,23.34
2023-04-23T08:21:47.561Z,23.36
2023-04-23T08:22:47.515Z,23.37
2023-04-23T08:23:47.483Z,23.39
2023-04-23T08:24:47.447Z,23.40
2023-04-23T08:25:47.407Z,23.42
2023-04-23T08:26:47.365Z,23.44
2023-04-23T08:27:47.334Z,23.45
2023-04-23T08:28:47.290Z,23.46
2023-04-23T08:29:47.252Z,23.49
2023-04-23T08:30:47.214Z,23.50
2023-04-23T08:31:47.204Z,23.51
2023-04-23T08:32:47.232Z,23.53
2023-04-23T08:33:47.199Z,23.54
2023-04-23T08:34:47.212Z,23.57
2023-04-23T08:35:47.837Z,23.57
2023-04-23T08:36:47.200Z,23.59
2023-04-23T08:37:47.202Z,23.60
2023-04-23T08:38:47.195Z,23.61
2023-04-23T08:39:47.203Z,23.62
2023-04-23T08:40:47.195Z,23.63
2023-04-23T08:41:47.190Z,23.64
2023-04-23T08:42:47.221Z,23.66
2023-04-23T08:43:47.207Z,23.66
2023-04-23T08:44:47.170Z,23.67
2023-04-23T08:45:47.227Z,23.68
2023-04-23T08:46:47.325Z,23.67
2023-04-23T08:47:47.186Z,23.68
2023-04-23T08:48:47.142Z,23.66
2023-04-23T08:49:47.139Z,23.68
2023-04-23T08:50:47.130Z,23.71
2023-04-23T08:51:47.098Z,23.72
2023-04-23T08:52:47.085Z,23.73
2023-04-23T08:53:47.067Z,23.71
2023-04-23T08:54:47.053Z,23.69
2023-04-23T08:55:47.046Z,23.69
2023-04-23T08:56:47.029Z,23.71
2023-04-23T08:57:47.014Z,23.71
2023-04-23T08:58:47.008Z,23.73
2023-04-23T08:59:46.985Z,23.74
2023-04-23T09:00:47.011Z,23.76
2023-04-23T09:01:46.957Z,23.74
2023-04-23T09:02:47.012Z,23.73
2023-04-23T09:03:47.009Z,23.73
2023-04-23T09:04:47.914Z,23.70
2023-04-23T09:05:46.865Z,23.70
2023-04-23T09:06:46.805Z,23.69
2023-04-23T09:07:46.794Z,23.67
2023-04-23T09:08:47.408Z,23.66
2023-04-23T09:09:46.685Z,23.65
2023-04-23T09:10:46.644Z,23.63
2023-04-23T09:11:46.601Z,23.62
2023-04-23T09:12:46.568Z,23.61
2023-04-23T09:13:46.520Z,23.60
2023-04-23T09:14:46.460Z,23.61
2023-04-23T09:15:46.412Z,23.60
2023-04-23T09:16:46.484Z,23.63
2023-04-23T09:17:46.413Z,23.64
2023-04-23T09:18:46.274Z,23.67
2023-04-23T09:19:46.219Z,23.66
2023-04-23T09:20:46.175Z,23.63
2023-04-23T09:21:46.137Z,23.62
2023-04-23T09:22:47.401Z,23.61
2023-04-23T09:23:46.046Z,23.60
2023-04-23T09:24:45.998Z,23.58
2023-04-23T09:25:45.949Z,23.57
2023-04-23T09:26:45.909Z,23.56
2023-04-23T09:27:45.869Z,23.58
2023-04-23T09:28:45.831Z,23.60
2023-04-23T09:29:45.823Z,23.62
2023-04-23T09:30:45.753Z,23.63
2023-04-23T09:31:45.714Z,23.63
2023-04-23T09:32:45.717Z,23.65
2023-04-23T09:33:45.600Z,23.65
2023-04-23T09:34:45.548Z,23.66
2023-04-23T09:35:45.503Z,23.67
2023-04-23T09:36:45.459Z,23.69
2023-04-23T09:37:45.425Z,23.69
2023-04-23T09:38:45.370Z,23.69
2023-04-23T09:39:45.336Z,23.71
2023-04-23T09:40:45.291Z,23.71
2023-04-23T09:41:45.230Z,23.72
2023-04-23T09:42:45.228Z,23.73
2023-04-23T09:43:45.188Z,23.73
2023-04-23T09:44:45.178Z,23.74
2023-04-23T09:45:45.182Z,23.74
2023-04-23T09:46:45.124Z,23.73
2023-04-23T09:47:46.944Z,23.75
2023-04-23T09:48:45.104Z,23.75
2023-04-23T09:49:45.099Z,23.75
2023-04-23T09:50:45.050Z,23.76
2023-04-23T09:51:45.034Z,23.77
2023-04-23T09:52:45.015Z,23.78
2023-04-23T09:53:45.555Z,23.78
2023-04-23T09:54:44.972Z,23.79
2023-04-23T09:55:44.938Z,23.80
2023-04-23T09:56:44.939Z,23.81
2023-04-23T09:57:44.929Z,23.82
2023-04-23T09:58:44.900Z,23.79
2023-04-23T09:59:47.821Z,23.77
2023-04-23T10:00:47.469Z,23.76
2023-04-23T10:01:45.029Z,23.77
2023-04-23T10:02:45.049Z,23.79
2023-04-23T10:03:45.029Z,23.81
2023-04-23T10:04:44.983Z,23.81
2023-04-23T10:05:59.803Z,23.82
2023-04-23T10:06:53.455Z,23.82
2023-04-23T10:07:45.735Z,23.82
2023-04-23T10:08:44.685Z,23.83
2023-04-23T10:09:44.783Z,23.83
2023-04-23T10:10:59.512Z,23.84
2023-04-23T10:11:45.554Z,23.83
2023-04-23T10:12:54.214Z,23.83
2023-04-23T10:13:45.457Z,23.80
2023-04-23T10:14:44.390Z,23.80
2023-04-23T10:15:44.373Z,23.82
2023-04-23T10:16:49.125Z,23.81
2023-04-23T10:17:46.887Z,23.79
2023-04-23T10:18:44.441Z,23.82
2023-04-23T10:19:44.522Z,23.82
2023-04-23T10:20:44.348Z,23.82
2023-04-23T10:21:53.706Z,23.81
2023-04-23T10:22:45.275Z,23.79
2023-04-23T10:23:44.252Z,23.78
2023-04-23T10:24:45.714Z,23.79
2023-04-23T10:25:44.139Z,23.80
2023-04-23T10:26:44.119Z,23.81
2023-04-23T10:27:52.049Z,23.81
2023-04-23T10:28:45.094Z,23.81
2023-04-23T10:29:44.064Z,23.79
2023-04-23T10:30:43.870Z,23.80
2023-04-23T10:31:43.903Z,23.80
2023-04-23T10:32:43.886Z,23.81
2023-04-23T10:33:55.980Z,23.81
2023-04-23T10:34:44.678Z,23.81
2023-04-23T10:35:43.621Z,23.81
2023-04-23T10:36:43.566Z,23.80
2023-04-23T10:37:43.529Z,23.80
2023-04-23T10:38:56.919Z,23.79
2023-04-23T10:39:44.464Z,23.81
2023-04-23T10:40:43.494Z,23.80
2023-04-23T10:41:43.317Z,23.81
2023-04-23T10:42:43.289Z,23.80
2023-04-23T10:43:43.238Z,23.81
2023-04-23T10:45:44.136Z,23.80
2023-04-23T10:46:43.237Z,23.78
2023-04-23T10:47:43.116Z,23.76
2023-04-23T10:48:43.010Z,23.74
2023-04-23T10:49:43.088Z,23.74
2023-04-23T10:51:00.297Z,23.74
2023-04-23T10:52:06.361Z,23.72
2023-04-23T10:52:43.824Z,23.71
2023-04-23T10:53:42.790Z,23.70
2023-04-23T10:54:42.738Z,23.69
2023-04-23T10:55:42.707Z,23.69
2023-04-23T10:56:42.669Z,23.68
2023-04-23T10:57:43.359Z,23.68
2023-04-23T10:58:42.579Z,23.67
2023-04-23T10:59:42.827Z,23.65
2023-04-23T11:00:42.485Z,23.64
2023-04-23T11:01:42.483Z,23.64
2023-04-23T11:02:42.545Z,23.64
2023-04-23T11:03:44.898Z,23.63
2023-04-23T11:04:43.002Z,23.64
2023-04-23T11:05:42.249Z,23.65
2023-04-23T11:06:42.208Z,23.63
2023-04-23T11:07:42.164Z,23.63
2023-04-23T11:08:42.130Z,23.64
2023-04-23T11:09:44.215Z,23.63
2023-04-23T11:10:42.040Z,23.62
2023-04-23T11:11:42.124Z,23.60
2023-04-23T11:12:42.042Z,23.59
2023-04-23T11:13:41.960Z,23.60
2023-04-23T11:14:41.952Z,23.61
2023-04-23T11:15:41.923Z,23.61
2023-04-23T11:16:43.585Z,23.61
2023-04-23T11:17:41.975Z,23.62
2023-04-23T11:18:41.939Z,23.61
2023-04-23T11:19:42.208Z,23.60
2023-04-23T11:20:41.940Z,23.59
2023-04-23T11:21:41.915Z,23.58
2023-04-23T11:22:41.911Z,23.57
2023-04-23T11:23:41.956Z,23.58
2023-04-23T11:24:41.948Z,23.57
2023-04-23T11:25:41.974Z,23.57
2023-04-23T11:26:41.924Z,23.57
2023-04-23T11:27:41.941Z,23.56
2023-04-23T11:28:41.922Z,23.55
2023-04-23T11:29:42.189Z,23.55
2023-04-23T11:30:41.922Z,23.53
2023-04-23T11:31:50.841Z,23.52
2023-04-23T11:32:43.093Z,23.51
2023-04-23T11:33:41.853Z,23.50
2023-04-23T11:34:41.906Z,23.50
2023-04-23T11:35:41.776Z,23.49
2023-04-23T11:36:41.723Z,23.48
2023-04-23T11:37:42.419Z,23.47
2023-04-23T11:38:41.716Z,23.47
2023-04-23T11:39:42.060Z,23.46
2023-04-23T11:40:41.608Z,23.45
2023-04-23T11:41:41.634Z,23.46
2023-04-23T11:42:41.488Z,23.45
2023-04-23T11:43:41.450Z,23.44
2023-04-23T11:44:41.416Z,23.44
2023-04-23T11:45:41.389Z,23.43
2023-04-23T11:46:41.458Z,23.43
2023-04-23T11:47:41.434Z,23.44
2023-04-23T11:48:41.398Z,23.44
2023-04-23T11:49:41.753Z,23.45
2023-04-23T11:50:41.407Z,23.44
2023-04-23T11:51:41.416Z,23.45
2023-04-23T11:52:41.424Z,23.45
2023-04-23T11:53:41.436Z,23.45
2023-04-23T11:54:41.454Z,23.45
2023-04-23T11:55:41.478Z,23.45
2023-04-23T11:56:41.484Z,23.45
2023-04-23T11:57:41.487Z,23.45
2023-04-23T11:58:41.496Z,23.45
2023-04-23T11:59:41.729Z,23.45
2023-04-23T12:00:41.520Z,23.43
2023-04-23T12:01:41.560Z,23.43
2023-04-23T12:02:41.710Z,23.42
2023-04-23T12:03:41.635Z,23.42
2023-04-23T12:04:41.626Z,23.41
2023-04-23T12:05:41.891Z,23.41
2023-04-23T12:06:41.604Z,23.40
2023-04-23T12:07:41.614Z,23.40
2023-04-23T12:08:41.620Z,23.39
2023-04-23T12:09:42.669Z,23.39
2023-04-23T12:10:41.732Z,23.39
2023-04-23T12:11:41.651Z,23.38
2023-04-23T12:12:41.699Z,23.37
2023-04-23T12:13:41.685Z,23.37
2023-04-23T12:14:41.947Z,23.37
2023-04-23T12:15:41.769Z,23.37
2023-04-23T12:16:41.734Z,23.36
2023-04-23T12:17:41.809Z,23.36
2023-04-23T12:18:41.762Z,23.36
2023-04-23T12:19:41.970Z,23.36
2023-04-23T12:20:41.805Z,23.36
2023-04-23T12:21:41.792Z,23.36
2023-04-23T12:22:41.804Z,23.35
2023-04-23T12:23:41.826Z,23.35
2023-04-23T12:24:41.843Z,23.34
2023-04-23T12:25:41.871Z,23.35
2023-04-23T12:26:41.977Z,23.35
2023-04-23T12:27:41.899Z,23.36
2023-04-23T12:28:41.896Z,23.35
2023-04-23T12:29:42.070Z,23.35
2023-04-23T12:30:41.925Z,23.36
2023-04-23T12:31:42.070Z,23.37
2023-04-23T12:32:42.039Z,23.37
2023-04-23T12:33:41.955Z,23.36
2023-04-23T12:34:42.225Z,23.34
2023-04-23T12:35:41.973Z,23.36
2023-04-23T12:36:41.993Z,23.35
2023-04-23T12:37:42.011Z,23.35
2023-04-23T12:38:42.038Z,23.36
2023-04-23T12:39:42.235Z,23.36
2023-04-23T12:40:42.048Z,23.35
2023-04-23T12:41:42.059Z,23.35
2023-04-23T12:42:42.076Z,23.33
2023-04-23T12:43:42.091Z,23.32
2023-04-23T12:44:42.119Z,23.31
2023-04-23T12:45:42.127Z,23.30
2023-04-23T12:46:42.160Z,23.30
2023-04-23T12:47:42.162Z,23.29
2023-04-23T12:48:42.166Z,23.29
2023-04-23T12:49:42.410Z,23.28
2023-04-23T12:50:42.211Z,23.29
2023-04-23T12:51:42.229Z,23.29
2023-04-23T12:52:42.227Z,23.28
2023-04-23T12:53:42.913Z,23.27